createdAt,value
2018-05-23T00:01:19.640Z,5.03
2018-05-23T00:03:48.064Z,5.20
2018-05-23T00:06:16.562Z,6.03
2018-05-23T00:08:46.070Z,6.00
2018-05-23T00:11:14.598Z,5.90
2018-05-23T00:13:43.094Z,6.70
2018-05-23T00:16:11.722Z,5.70
2018-05-23T00:18:40.985Z,6.00
2018-05-23T00:21:09.474Z,5.87
2018-05-23T00:23:38.428Z,6.27
2018-05-23T00:26:07.010Z,5.97
2018-05-23T00:28:35.501Z,5.57
2018-05-23T00:31:04.455Z,6.07
2018-05-23T00:33:33.870Z,5.73
2018-05-23T00:36:03.165Z,5.77
2018-05-23T00:38:32.657Z,5.97
2018-05-23T00:41:01.923Z,5.63
2018-05-23T00:43:30.597Z,5.87
2018-05-23T00:45:59.156Z,5.67
2018-05-23T00:48:27.876Z,5.80
2018-05-23T00:50:56.451Z,6.03
2018-05-23T00:53:25.386Z,5.40
2018-05-23T00:55:54.645Z,6.07
2018-05-23T00:58:23.133Z,5.83
2018-05-23T01:00:51.710Z,6.17
2018-05-23T01:03:20.390Z,5.90
2018-05-23T01:05:48.902Z,5.47
2018-05-23T01:08:18.338Z,5.00
2018-05-23T01:10:47.687Z,5.80
2018-05-23T01:13:16.367Z,5.87
2018-05-23T01:15:45.398Z,5.23
2018-05-23T01:18:14.665Z,5.67
2018-05-23T01:20:43.205Z,5.53
2018-05-23T01:23:12.745Z,5.43
2018-05-23T01:25:41.259Z,5.60
2018-05-23T01:28:10.072Z,6.30
2018-05-23T01:30:38.634Z,6.27
2018-05-23T01:33:07.487Z,5.60
2018-05-23T01:35:36.006Z,7.10
2018-05-23T01:38:04.582Z,7.13
2018-05-23T01:40:34.739Z,6.40
2018-05-23T01:43:03.245Z,7.50
2018-05-23T01:45:31.947Z,6.23
2018-05-23T01:48:00.454Z,6.40
2018-05-23T01:50:29.160Z,6.53
2018-05-23T01:52:57.837Z,7.47
2018-05-23T01:55:27.095Z,8.07
2018-05-23T01:57:55.815Z,7.40
2018-05-23T02:00:25.854Z,6.90
2018-05-23T02:02:55.134Z,6.70
2018-05-23T02:05:23.638Z,8.10
2018-05-23T02:07:53.121Z,7.70
2018-05-23T02:10:23.202Z,7.73
2018-05-23T02:12:51.705Z,8.23
2018-05-23T02:15:20.269Z,8.10
2018-05-23T02:17:48.758Z,9.57
2018-05-23T02:20:17.331Z,8.83
2018-05-23T02:22:45.989Z,9.87
2018-05-23T02:25:15.233Z,9.93
2018-05-23T02:27:43.741Z,8.73
2018-05-23T02:30:13.286Z,10.73
2018-05-23T02:32:41.941Z,10.83
2018-05-23T02:35:11.386Z,9.03
2018-05-23T02:37:40.122Z,10.17
2018-05-23T02:40:09.430Z,9.40
2018-05-23T02:42:38.778Z,8.60
2018-05-23T02:45:07.330Z,9.40
2018-05-23T02:47:36.000Z,10.23
2018-05-23T02:50:04.839Z,10.17
2018-05-23T02:52:33.766Z,10.47
2018-05-23T02:55:02.270Z,10.83
2018-05-23T02:57:30.786Z,10.90
2018-05-23T02:59:59.583Z,10.87
2018-05-23T03:02:28.106Z,10.50
2018-05-23T03:04:57.437Z,10.50
2018-05-23T03:07:26.082Z,10.73
2018-05-23T03:09:55.554Z,11.80
2018-05-23T03:12:24.298Z,9.57
2018-05-23T03:14:53.066Z,10.70
2018-05-23T03:17:22.463Z,11.50
2018-05-23T03:19:51.932Z,11.47
2018-05-23T03:22:20.630Z,14.60
2018-05-23T03:24:49.204Z,12.13
2018-05-23T03:27:17.739Z,12.37
2018-05-23T03:29:47.261Z,11.17
2018-05-23T03:32:15.974Z,13.00
2018-05-23T03:34:44.478Z,14.03
2018-05-23T03:37:13.249Z,13.33
2018-05-23T03:39:41.758Z,16.83
2018-05-23T03:42:10.257Z,15.33
2018-05-23T03:44:39.882Z,14.77
2018-05-23T03:47:08.394Z,15.20
2018-05-23T03:49:36.894Z,14.00
2018-05-23T03:52:05.474Z,13.63
2018-05-23T03:54:33.982Z,19.97
2018-05-23T03:57:02.732Z,15.13
2018-05-23T03:59:49.236Z,15.53
2018-05-23T04:02:35.739Z,13.33
2018-05-23T04:05:22.109Z,14.07
2018-05-23T04:07:50.622Z,14.63
2018-05-23T04:10:19.177Z,12.53
2018-05-23T04:12:47.734Z,12.90
2018-05-23T04:15:17.083Z,13.13
2018-05-23T04:17:45.594Z,14.17
2018-05-23T04:20:15.168Z,13.70
2018-05-23T04:22:43.854Z,12.37
2018-05-23T04:25:12.357Z,11.90
2018-05-23T04:27:41.128Z,12.50
2018-05-23T04:30:09.911Z,12.33
2018-05-23T04:32:38.418Z,12.13
2018-05-23T04:35:06.965Z,11.00
2018-05-23T04:37:35.524Z,24.13
2018-05-23T04:40:04.142Z,9.90
2018-05-23T04:42:32.980Z,10.13
2018-05-23T04:45:02.257Z,10.40
2018-05-23T04:47:30.766Z,9.60
2018-05-23T04:50:00.077Z,9.37
2018-05-23T04:52:29.553Z,8.53
2018-05-23T04:54:58.968Z,8.90
2018-05-23T04:57:28.635Z,8.83
2018-05-23T04:59:57.133Z,7.50
2018-05-23T05:02:25.899Z,8.40
2018-05-23T05:04:54.553Z,6.83
2018-05-23T05:07:23.043Z,7.50
2018-05-23T05:09:51.618Z,7.90
2018-05-23T05:12:20.170Z,8.37
2018-05-23T05:14:48.670Z,7.13
2018-05-23T05:17:17.929Z,7.33
2018-05-23T05:19:46.697Z,7.30
2018-05-23T05:22:15.346Z,7.17
2018-05-23T05:24:43.853Z,6.60
2018-05-23T05:27:12.586Z,6.63
2018-05-23T05:29:41.275Z,6.63
2018-05-23T05:32:10.695Z,6.13
2018-05-23T05:34:39.634Z,5.67
2018-05-23T05:37:08.321Z,5.80
2018-05-23T05:39:36.821Z,6.30
2018-05-23T05:42:05.521Z,5.60
2018-05-23T05:44:34.023Z,5.70
2018-05-23T05:47:03.346Z,5.23
2018-05-23T05:49:32.193Z,5.07
2018-05-23T05:52:00.693Z,5.40
2018-05-23T05:54:29.958Z,5.00
2018-05-23T05:56:58.727Z,5.13
2018-05-23T05:59:27.313Z,5.40
2018-05-23T06:01:55.804Z,5.33
2018-05-23T06:04:24.514Z,5.73
2018-05-23T06:06:54.559Z,5.17
2018-05-23T06:09:23.997Z,5.17
2018-05-23T06:11:52.556Z,4.70
2018-05-23T06:14:21.049Z,4.73
2018-05-23T06:16:49.545Z,4.67
2018-05-23T06:19:18.081Z,4.87
2018-05-23T06:21:47.338Z,4.50
2018-05-23T06:24:15.833Z,4.53
2018-05-23T06:26:45.428Z,5.20
2018-05-23T06:29:14.198Z,4.97
2018-05-23T06:31:42.698Z,5.27
2018-05-23T06:34:11.413Z,4.30
2018-05-23T06:36:40.690Z,4.23
2018-05-23T06:39:09.361Z,4.00
2018-05-23T06:41:38.302Z,3.87
2018-05-23T06:44:07.569Z,4.07
2018-05-23T06:46:36.062Z,3.80
2018-05-23T06:49:05.381Z,4.60
2018-05-23T06:51:34.830Z,6.07
2018-05-23T06:54:03.369Z,4.67
2018-05-23T06:56:33.057Z,5.67
2018-05-23T06:59:02.529Z,5.17
2018-05-23T07:01:31.104Z,4.60
2018-05-23T07:03:59.830Z,4.30
2018-05-23T07:06:28.337Z,6.67
2018-05-23T07:08:57.676Z,4.93
2018-05-23T07:11:26.435Z,4.33
2018-05-23T07:13:54.934Z,7.60
2018-05-23T07:16:23.426Z,4.27
2018-05-23T07:18:52.705Z,4.13
2018-05-23T07:21:21.207Z,3.97
2018-05-23T07:23:49.693Z,3.73
2018-05-23T07:26:18.366Z,3.57
2018-05-23T07:28:47.023Z,3.50
2018-05-23T07:31:16.472Z,3.60
2018-05-23T07:33:45.018Z,3.67
2018-05-23T07:36:13.735Z,3.73
2018-05-23T07:38:42.238Z,3.43
2018-05-23T07:41:11.857Z,3.67
2018-05-23T07:43:41.861Z,3.70
2018-05-23T07:46:10.575Z,3.70
2018-05-23T07:48:40.098Z,5.30
2018-05-23T07:51:08.813Z,3.70
2018-05-23T07:53:37.332Z,8.13
2018-05-23T07:56:06.014Z,4.27
2018-05-23T07:58:34.666Z,4.20
2018-05-23T08:01:03.223Z,3.77
2018-05-23T08:03:32.506Z,3.80
2018-05-23T08:06:01.786Z,5.03
2018-05-23T08:08:31.794Z,6.37
2018-05-23T08:11:00.710Z,4.10
2018-05-23T08:13:29.213Z,4.70
2018-05-23T08:15:57.919Z,2.87
2018-05-23T08:18:26.770Z,2.80
2018-05-23T08:20:55.289Z,16.10
2018-05-23T08:23:23.777Z,2.93
2018-05-23T08:25:52.720Z,3.10
2018-05-23T08:28:21.986Z,3.77
2018-05-23T08:30:50.478Z,3.10
2018-05-23T08:33:19.026Z,3.50
2018-05-23T08:35:48.230Z,3.37
2018-05-23T08:38:16.721Z,3.73
2018-05-23T08:40:45.635Z,4.10
2018-05-23T08:43:14.998Z,3.20
2018-05-23T08:45:43.692Z,3.60
2018-05-23T08:48:12.250Z,4.13
2018-05-23T08:50:40.742Z,3.10
2018-05-23T08:53:09.233Z,2.80
2018-05-23T08:55:38.158Z,2.90
2018-05-23T08:58:06.686Z,2.70
2018-05-23T09:00:35.350Z,2.70
2018-05-23T09:03:04.016Z,3.00
2018-05-23T09:05:33.276Z,2.83
2018-05-23T09:08:01.773Z,5.10
2018-05-23T09:10:30.495Z,4.03
2018-05-23T09:12:59.948Z,3.60
2018-05-23T09:15:28.733Z,5.00
2018-05-23T09:17:57.418Z,5.67
2018-05-23T09:20:26.005Z,2.90
2018-05-23T09:22:54.518Z,2.60
2018-05-23T09:25:23.161Z,2.87
2018-05-23T09:27:51.640Z,2.53
2018-05-23T09:30:20.161Z,2.30
2018-05-23T09:32:48.854Z,2.93
2018-05-23T09:35:18.118Z,2.40
2018-05-23T09:37:46.614Z,2.63
2018-05-23T09:40:15.686Z,2.80
2018-05-23T09:42:44.190Z,10.00
2018-05-23T09:45:12.965Z,2.13
2018-05-23T09:47:43.462Z,2.30
2018-05-23T09:50:12.050Z,3.30
2018-05-23T09:52:40.551Z,2.70
2018-05-23T09:55:09.585Z,2.57
2018-05-23T09:57:38.014Z,2.50
2018-05-23T10:00:06.590Z,2.37
2018-05-23T10:02:35.502Z,2.63
2018-05-23T10:05:04.034Z,2.83
2018-05-23T10:07:33.291Z,3.47
2018-05-23T10:10:02.214Z,2.80
2018-05-23T10:12:32.250Z,2.37
2018-05-23T10:15:01.602Z,2.63
2018-05-23T10:17:30.416Z,2.60
2018-05-23T10:19:59.722Z,2.73
2018-05-23T10:22:30.003Z,3.30
2018-05-23T10:24:58.830Z,2.70
2018-05-23T10:27:27.374Z,2.53
2018-05-23T10:29:56.013Z,2.83
2018-05-23T10:32:24.704Z,2.77
2018-05-23T10:34:53.394Z,2.30
2018-05-23T10:37:21.909Z,2.50
2018-05-23T10:39:51.055Z,2.90
2018-05-23T10:42:20.326Z,2.50
2018-05-23T10:44:48.831Z,2.77
2018-05-23T10:47:17.509Z,2.47
2018-05-23T10:49:46.030Z,2.40
2018-05-23T10:52:14.537Z,2.07
2018-05-23T10:54:43.262Z,2.20
2018-05-23T10:57:11.826Z,2.40
2018-05-23T10:59:40.287Z,1.73
2018-05-23T11:02:09.009Z,1.97
2018-05-23T11:04:37.510Z,2.97
2018-05-23T11:07:06.961Z,1.97
2018-05-23T11:09:35.874Z,1.80
2018-05-23T11:12:04.415Z,1.80
2018-05-23T11:14:32.917Z,2.17
2018-05-23T11:17:01.776Z,2.00
2018-05-23T11:19:30.379Z,1.67
2018-05-23T11:21:59.589Z,1.70
2018-05-23T11:24:28.372Z,1.97
2018-05-23T11:26:56.882Z,2.00
2018-05-23T11:29:25.378Z,1.60
2018-05-23T11:31:54.686Z,1.80
2018-05-23T11:34:24.129Z,1.97
2018-05-23T11:36:52.630Z,1.63
2018-05-23T11:39:21.357Z,1.90
2018-05-23T11:41:50.610Z,1.90
2018-05-23T11:44:19.229Z,7.00
2018-05-23T11:46:49.001Z,1.80
2018-05-23T11:49:17.509Z,1.50
2018-05-23T11:51:47.509Z,1.73
2018-05-23T11:54:16.853Z,1.70
2018-05-23T11:56:46.127Z,11.73
2018-05-23T11:59:14.669Z,2.17
2018-05-23T12:01:43.240Z,1.80
2018-05-23T12:04:11.746Z,1.60
2018-05-23T12:06:40.427Z,1.67
2018-05-23T12:09:09.223Z,1.90
2018-05-23T12:11:37.907Z,1.80
2018-05-23T12:14:06.419Z,2.13
2018-05-23T12:16:35.478Z,1.67
2018-05-23T12:19:03.982Z,1.70
2018-05-23T12:21:32.650Z,1.70
2018-05-23T12:24:01.182Z,1.70
2018-05-23T12:26:30.442Z,1.87
2018-05-23T12:28:59.014Z,1.93
2018-05-23T12:31:27.674Z,1.50
2018-05-23T12:33:56.166Z,1.47
2018-05-23T12:36:25.042Z,2.30
2018-05-23T12:38:53.757Z,1.90
2018-05-23T12:41:22.253Z,1.80
2018-05-23T12:43:50.742Z,1.90
2018-05-23T12:46:19.310Z,2.10
2018-05-23T12:48:47.983Z,3.97
2018-05-23T12:51:16.545Z,2.40
2018-05-23T12:53:45.293Z,2.73
2018-05-23T12:56:14.569Z,2.00
2018-05-23T12:58:43.069Z,3.53
2018-05-23T13:01:11.619Z,2.80
2018-05-23T13:03:40.109Z,2.60
2018-05-23T13:06:08.602Z,1.90
2018-05-23T13:08:37.386Z,2.27
2018-05-23T13:11:05.906Z,2.50
2018-05-23T13:13:35.173Z,1.90
2018-05-23T13:16:03.738Z,2.27
2018-05-23T13:18:32.420Z,2.43
2018-05-23T13:21:00.917Z,2.70
2018-05-23T13:23:29.830Z,2.40
2018-05-23T13:25:59.864Z,2.30
2018-05-23T13:28:29.141Z,2.50
2018-05-23T13:30:57.829Z,2.40
2018-05-23T13:33:26.584Z,2.80
2018-05-23T13:35:55.093Z,2.40
2018-05-23T13:38:24.018Z,2.70
2018-05-23T13:40:53.292Z,3.13
2018-05-23T13:43:22.654Z,2.90
2018-05-23T13:45:51.439Z,3.00
2018-05-23T13:48:19.958Z,3.63
2018-05-23T13:50:48.710Z,3.23
2018-05-23T13:53:17.566Z,3.63
2018-05-23T13:55:46.076Z,3.57
2018-05-23T13:58:14.714Z,3.30
2018-05-23T14:18:34.189Z,4.73
2018-05-23T14:21:02.879Z,4.80
2018-05-23T14:23:31.573Z,4.60
2018-05-23T14:26:00.383Z,5.37
2018-05-23T14:28:28.904Z,6.03
2018-05-23T14:30:57.619Z,5.67
2018-05-23T14:33:26.189Z,5.77
2018-05-23T14:35:54.774Z,5.33
2018-05-23T14:38:23.566Z,5.90
2018-05-23T14:40:52.130Z,5.40
2018-05-23T14:43:20.641Z,5.90
2018-05-23T14:45:49.139Z,5.93
2018-05-23T14:48:17.874Z,6.20
2018-05-23T14:50:46.390Z,6.13
2018-05-23T14:53:14.894Z,7.00
2018-05-23T14:55:44.041Z,7.83
2018-05-23T14:58:12.470Z,5.77
2018-05-23T15:00:40.901Z,7.47
2018-05-23T15:03:09.355Z,6.93
2018-05-23T15:05:38.554Z,6.00
2018-05-23T15:08:07.745Z,6.33
2018-05-23T15:10:37.272Z,6.07
2018-05-23T15:13:05.737Z,6.50
2018-05-23T15:15:34.922Z,6.10
2018-05-23T15:18:04.656Z,5.90
2018-05-23T15:20:33.145Z,7.13
2018-05-23T15:23:01.604Z,6.17
2018-05-23T15:25:30.849Z,8.07
2018-05-23T15:27:59.267Z,7.03
2018-05-23T15:30:28.472Z,6.77
2018-05-23T15:32:57.720Z,6.67
2018-05-23T15:35:26.141Z,6.10
2018-05-23T15:37:55.365Z,6.90
2018-05-23T15:40:23.989Z,7.17
2018-05-23T15:42:52.425Z,7.30
2018-05-23T15:45:21.664Z,7.13
2018-05-23T15:47:50.155Z,7.20
2018-05-23T15:50:18.590Z,7.20
2018-05-23T15:52:47.041Z,7.47
2018-05-23T15:55:15.849Z,6.37
2018-05-23T15:57:45.042Z,7.07
2018-05-23T16:00:14.249Z,8.73
2018-05-23T16:02:44.521Z,7.40
2018-05-23T16:05:12.961Z,9.90
2018-05-23T16:07:41.390Z,7.70
2018-05-23T16:10:10.129Z,9.07
2018-05-23T16:12:38.565Z,9.13
2018-05-23T16:15:07.032Z,8.90
2018-05-23T16:17:35.513Z,8.73
2018-05-23T16:20:04.057Z,8.13
2018-05-23T16:22:32.497Z,8.43
2018-05-23T16:25:01.127Z,8.60
2018-05-23T16:27:29.570Z,8.47
2018-05-23T16:29:58.792Z,8.67
2018-05-23T16:32:27.273Z,9.13
2018-05-23T16:34:55.696Z,8.67
2018-05-23T16:37:24.133Z,9.27
2018-05-23T16:39:52.625Z,8.90
2018-05-23T16:42:21.134Z,8.80
2018-05-23T16:44:50.288Z,9.63
2018-05-23T16:47:18.991Z,9.20
2018-05-23T16:49:47.425Z,8.90
2018-05-23T16:52:15.850Z,8.27
2018-05-23T16:54:44.465Z,7.73
2018-05-23T16:57:12.901Z,10.60
2018-05-23T16:59:41.333Z,8.50
2018-05-23T17:02:09.809Z,8.17
2018-05-23T17:04:38.241Z,8.00
2018-05-23T17:07:06.679Z,8.93
2018-05-23T17:09:35.153Z,7.73
2018-05-23T17:12:03.589Z,7.93
2018-05-23T17:14:32.020Z,9.00
2018-05-23T17:17:01.473Z,8.00
2018-05-23T17:19:29.938Z,8.83
2018-05-23T17:21:59.133Z,8.63
2018-05-23T17:24:27.729Z,8.37
2018-05-23T17:26:56.337Z,9.47
2018-05-23T17:29:24.790Z,10.33
2018-05-23T17:31:53.295Z,12.90
2018-05-23T17:34:21.879Z,12.83
2018-05-23T17:36:50.331Z,12.23
2018-05-23T17:39:19.004Z,12.60
2018-05-23T17:41:48.246Z,12.40
2018-05-23T17:44:16.694Z,12.60
2018-05-23T17:46:45.393Z,13.63
2018-05-23T17:49:13.855Z,13.50
2018-05-23T17:51:43.343Z,14.57
2018-05-23T17:54:12.626Z,14.37
2018-05-23T17:56:41.305Z,10.90
2018-05-23T17:59:10.857Z,13.03
2018-05-23T18:01:39.716Z,10.67
2018-05-23T18:04:09.077Z,10.57
2018-05-23T18:06:37.557Z,11.20
2018-05-23T18:09:07.149Z,11.23
2018-05-23T18:11:35.585Z,10.70
2018-05-23T18:14:04.052Z,10.97
2018-05-23T18:16:32.553Z,11.50
2018-05-23T18:19:01.749Z,11.00
2018-05-23T18:21:30.183Z,10.43
2018-05-23T18:23:59.793Z,10.97
2018-05-23T18:26:28.225Z,11.53
2018-05-23T18:28:57.426Z,9.10
2018-05-23T18:31:26.854Z,8.40
2018-05-23T18:33:55.289Z,9.03
2018-05-23T18:36:23.722Z,9.30
2018-05-23T18:38:52.189Z,8.60
2018-05-23T18:41:20.628Z,9.87
2018-05-23T18:43:49.073Z,11.13
2018-05-23T18:46:17.554Z,12.03
2018-05-23T18:48:45.994Z,10.57
2018-05-23T18:51:15.187Z,12.53
2018-05-23T18:53:44.609Z,9.00
2018-05-23T18:56:13.054Z,7.30
2018-05-23T18:58:42.396Z,6.43
2018-05-23T19:01:11.197Z,7.50
2018-05-23T19:03:39.636Z,7.60
2018-05-23T19:06:08.845Z,8.70
2018-05-23T19:08:37.783Z,12.27
2018-05-23T19:11:06.229Z,7.10
2018-05-23T19:13:34.672Z,6.03
2018-05-23T19:16:04.080Z,6.73
2018-05-23T19:18:33.286Z,5.40
2018-05-23T19:21:02.536Z,5.73
2018-05-23T19:23:31.459Z,5.03
2018-05-23T19:26:00.861Z,5.00
2018-05-23T19:28:30.422Z,4.93
2018-05-23T19:31:00.122Z,5.10
2018-05-23T19:33:28.593Z,4.87
2018-05-23T19:35:57.017Z,4.73
2018-05-23T19:38:25.488Z,4.43
2018-05-23T19:40:53.962Z,4.63
2018-05-23T19:43:22.393Z,4.73
2018-05-23T19:45:51.825Z,3.87
2018-05-23T19:48:20.253Z,4.90
2018-05-23T19:50:48.694Z,4.30
2018-05-23T19:53:17.369Z,4.43
2018-05-23T19:55:45.814Z,5.07
2018-05-23T19:58:15.007Z,4.57
2018-05-23T20:00:43.481Z,4.00
2018-05-23T20:03:11.910Z,4.63
2018-05-23T20:05:40.342Z,4.17
2018-05-23T20:08:09.136Z,3.90
2018-05-23T20:10:37.573Z,4.00
2018-05-23T20:13:06.041Z,3.40
2018-05-23T20:15:34.525Z,4.00
2018-05-23T20:18:03.018Z,3.57
2018-05-23T20:20:31.509Z,3.10
2018-05-23T20:23:00.068Z,3.77
2018-05-23T20:25:28.560Z,3.77
2018-05-23T20:27:57.835Z,3.77
2018-05-23T20:30:26.410Z,3.67
2018-05-23T20:32:55.673Z,3.07
2018-05-23T20:35:25.678Z,3.97
2018-05-23T20:37:54.491Z,3.57
2018-05-23T20:40:24.490Z,3.43
2018-05-23T20:42:52.982Z,3.80
2018-05-23T20:45:21.738Z,3.53
2018-05-23T20:47:50.243Z,3.20
2018-05-23T20:50:18.898Z,3.33
2018-05-23T20:52:47.754Z,3.13
2018-05-23T20:55:17.154Z,3.67
2018-05-23T20:57:45.822Z,3.73
2018-05-23T21:00:15.314Z,3.03
2018-05-23T21:02:44.072Z,4.17
2018-05-23T21:05:12.769Z,3.30
2018-05-23T21:07:41.850Z,3.60
2018-05-23T21:10:10.360Z,3.73
2018-05-23T21:12:38.857Z,4.03
2018-05-23T21:15:08.186Z,3.67
2018-05-23T21:17:36.899Z,3.90
2018-05-23T21:20:05.398Z,3.40
2018-05-23T21:22:34.101Z,2.93
2018-05-23T21:25:03.367Z,2.87
2018-05-23T21:27:31.948Z,2.83
2018-05-23T21:30:00.518Z,2.27
2018-05-23T21:32:29.111Z,2.60
2018-05-23T21:34:57.791Z,2.83
2018-05-23T21:37:26.342Z,3.00
2018-05-23T21:39:55.753Z,3.07
2018-05-23T21:42:24.478Z,2.90
2018-05-23T21:44:53.026Z,2.83
2018-05-23T21:47:21.593Z,2.80
2018-05-23T21:49:50.846Z,2.60
2018-05-23T21:52:19.627Z,2.73
2018-05-23T21:54:48.174Z,2.77
2018-05-23T21:57:17.474Z,3.17
2018-05-23T21:59:47.150Z,2.50
2018-05-23T22:02:15.654Z,3.13
2018-05-23T22:04:44.914Z,2.63
2018-05-23T22:07:13.683Z,2.70
2018-05-23T22:09:42.182Z,3.07
2018-05-23T22:12:10.840Z,3.30
2018-05-23T22:14:39.401Z,3.00
2018-05-23T22:17:07.904Z,3.17
2018-05-23T22:19:36.512Z,2.80
2018-05-23T22:22:05.295Z,2.87
2018-05-23T22:24:34.625Z,3.23
2018-05-23T22:27:03.090Z,2.90
2018-05-23T22:29:31.638Z,3.03
2018-05-23T22:32:00.132Z,2.83
2018-05-23T22:34:28.831Z,3.00
2018-05-23T22:36:57.506Z,2.67
2018-05-23T22:39:26.002Z,3.07
2018-05-23T22:41:54.666Z,3.10
2018-05-23T22:44:23.210Z,3.03
2018-05-23T22:46:52.554Z,2.90
2018-05-23T22:49:21.050Z,3.00
2018-05-23T22:51:49.884Z,3.00
2018-05-23T22:54:18.389Z,3.27
2018-05-23T22:56:47.384Z,2.87
2018-05-23T22:59:16.118Z,2.90
2018-05-23T23:01:44.876Z,3.07
2018-05-23T23:04:13.873Z,3.43
2018-05-23T23:06:43.880Z,3.83
2018-05-23T23:09:13.490Z,3.57
2018-05-23T23:11:42.275Z,3.40
2018-05-23T23:14:11.202Z,3.87
2018-05-23T23:16:40.776Z,4.07
2018-05-23T23:19:09.511Z,3.43
2018-05-23T23:21:38.246Z,3.27
2018-05-23T23:24:06.934Z,3.30
2018-05-23T23:26:35.517Z,3.07
2018-05-23T23:29:04.066Z,3.40
2018-05-23T23:31:33.318Z,3.73
2018-05-23T23:34:03.322Z,3.70
2018-05-23T23:36:32.011Z,3.67
2018-05-23T23:39:00.514Z,3.83
2018-05-23T23:41:29.168Z,3.30
2018-05-23T23:43:58.026Z,3.53
2018-05-23T23:46:26.748Z,2.97
2018-05-23T23:48:55.254Z,3.77
2018-05-23T23:51:23.951Z,4.10
2018-05-23T23:53:53.946Z,4.60
2018-05-23T23:56:22.720Z,3.90
2018-05-23T23:58:51.910Z,4.10
